Terminal Aerodrome Forecast
Issued by NWS Blacksburg, VA

Home | Current Version | Previous Version | Text Only | Print | Product List | Glossary On
Versions: 1 2 3 4 5 6 7 8 9 10 11 12 13 14 15 16 17 18
000
FTUS41 KRNK 221735
TAFLYH
TAF
KLYH 221735Z 2218/2318 04006KT 3SM -DZ BR OVC003
     FM222200 06005KT P6SM OVC008
     FM230000 05007KT 1SM BR VCSH OVC008
     FM230100 06008KT P6SM -RA OVC008
     FM230400 06013KT 4SM RA OVC008
     FM231000 09010KT 6SM -RA OVC008
     FM231500 13006KT P6SM -SHRA BKN015=

USA.gov is the U.S. government's official web portal to all federal, state and local government web resources and services.